Time;durP1;ratioP1;P1;durP2;ratioP2;P2;SDS_P1;SDS_P2;PMS_P1;PMS_P2;Temp;Humidity;BMP_temperature;BMP_pressure;BME280_temperature;BME280_humidity;BME280_pressure;Samples;Min_cycle;Max_cycle;Signal;HPM_P1;HPM_P2
2021/12/05 00:21:09;;;;;;;2.63;1.90;;;17.00;56.60;17.90;99129.00;;;;4970026;28;20176;-41
2021/12/05 00:23:47;;;;;;;2.50;2.10;;;17.00;56.60;17.90;99125.00;;;;4969071;28;20216;-40
2021/12/05 00:26:17;;;;;;;2.23;1.77;;;16.90;56.70;17.90;99138.00;;;;4969157;28;20672;-40
2021/12/05 00:29:06;;;;;;;4.13;2.20;;;16.90;56.50;17.90;99137.00;;;;4969822;28;20177;-40
2021/12/05 00:31:52;;;;;;;2.53;2.10;;;16.90;56.70;17.80;99141.00;;;;4969580;28;20252;-40
2021/12/05 00:39:53;;;;;;;2.03;1.80;;;16.80;56.90;17.80;99138.00;;;;4969477;28;20182;-40
2021/12/05 00:50:45;;;;;;;2.20;2.00;;;16.80;56.90;17.70;99157.00;;;;4969791;28;20309;-42
2021/12/05 00:56:06;;;;;;;2.17;1.83;;;16.70;57.10;17.60;99151.00;;;;4969271;28;20184;-42
2021/12/05 00:59:11;;;;;;;2.27;1.77;;;16.70;56.90;17.60;99144.00;;;;4969458;28;20169;-41
2021/12/05 01:11:58;;;;;;;1.70;1.60;;;16.60;57.10;17.50;99161.00;;;;4970241;28;20737;-42
2021/12/05 01:14:32;;;;;;;2.17;1.90;;;16.50;56.90;17.50;99149.00;;;;4969091;28;20169;-42
2021/12/05 01:16:59;;;;;;;2.00;1.80;;;16.50;56.90;17.50;99153.00;;;;4969142;28;20169;-42
2021/12/05 01:19:26;;;;;;;2.43;1.90;;;16.50;57.10;17.50;99151.00;;;;4969250;28;20255;-42
2021/12/05 01:21:57;;;;;;;1.80;1.70;;;16.50;56.90;17.50;99136.00;;;;4967407;28;20209;-41
2021/12/05 01:24:52;;;;;;;2.07;1.70;;;16.50;57.10;17.50;99153.00;;;;4968627;28;20189;-41
2021/12/05 01:30:06;;;;;;;2.43;1.80;;;16.40;56.90;17.40;99159.00;;;;4968858;28;20177;-42
2021/12/05 01:32:58;;;;;;;2.47;1.93;;;16.40;57.10;17.40;99173.00;;;;4968308;28;20205;-42
2021/12/05 01:35:43;;;;;;;2.00;1.67;;;16.40;57.10;17.40;99172.00;;;;4968213;28;20176;-41
2021/12/05 01:38:19;;;;;;;1.80;1.70;;;16.30;57.00;17.40;99176.00;;;;4967403;28;20176;-41
2021/12/05 01:40:59;;;;;;;2.30;1.90;;;16.30;57.00;17.30;99174.00;;;;4968989;28;20196;-41
2021/12/05 01:44:13;;;;;;;1.93;1.80;;;16.40;57.10;17.30;99168.00;;;;4967928;28;20674;-41
2021/12/05 01:49:19;;;;;;;1.97;1.77;;;16.30;57.10;17.30;99181.00;;;;4967214;28;20621;-42
2021/12/05 01:54:31;;;;;;;2.10;1.90;;;16.20;57.20;17.30;99170.00;;;;4968514;28;20173;-42
2021/12/05 02:07:54;;;;;;;1.83;1.70;;;16.20;56.90;17.20;99177.00;;;;4967383;28;20173;-42
2021/12/05 02:16:06;;;;;;;2.07;1.80;;;16.10;57.20;17.20;99176.00;;;;4967208;28;20655;-42
2021/12/05 02:32:33;;;;;;;1.90;1.70;;;16.00;57.20;17.00;99176.00;;;;4967994;28;20189;-42
2021/12/05 02:38:14;;;;;;;1.83;1.70;;;16.00;57.30;17.00;99186.00;;;;4968368;28;20217;-42
2021/12/05 02:43:29;;;;;;;1.80;1.70;;;15.90;57.20;16.90;99183.00;;;;4967663;28;20291;-41
2021/12/05 02:45:59;;;;;;;1.70;1.60;;;15.90;57.20;16.90;99179.00;;;;4968484;28;20252;-41
2021/12/05 02:48:27;;;;;;;2.10;1.70;;;15.90;57.20;16.90;99179.00;;;;4969793;28;20193;-41
2021/12/05 02:50:53;;;;;;;1.80;1.57;;;15.90;57.10;16.90;99182.00;;;;4971236;28;20696;-42
2021/12/05 02:53:27;;;;;;;2.33;1.97;;;15.90;57.20;16.90;99177.00;;;;4971260;28;20296;-41
2021/12/05 02:55:52;;;;;;;2.00;1.60;;;15.90;57.10;16.90;99180.00;;;;4971328;28;20173;-42
2021/12/05 03:01:10;;;;;;;2.23;1.90;;;15.80;57.10;16.90;99171.00;;;;4971439;28;20189;-42
2021/12/05 03:03:32;;;;;;;1.90;1.70;;;15.80;57.10;16.90;99182.00;;;;4970205;28;20621;-42
2021/12/05 03:06:11;;;;;;;1.80;1.70;;;15.80;57.10;16.90;99101.00;;;;4970777;28;20738;-42
2021/12/05 03:08:37;;;;;;;2.00;1.80;;;15.80;57.20;16.90;99160.00;;;;4971237;28;20204;-41
2021/12/05 03:11:03;;;;;;;1.77;1.67;;;15.80;57.10;16.80;99164.00;;;;4970875;28;20309;-42
2021/12/05 03:13:28;;;;;;;1.97;1.77;;;15.80;57.30;16.80;99155.00;;;;4969527;28;20200;-41
2021/12/05 03:15:56;;;;;;;1.47;1.37;;;15.80;57.10;16.80;99151.00;;;;4970895;28;20553;-41
2021/12/05 03:18:23;;;;;;;1.97;1.77;;;15.70;57.20;16.80;99150.00;;;;4970818;28;20177;-42
2021/12/05 03:20:49;;;;;;;1.73;1.60;;;15.80;57.10;16.80;99147.00;;;;4969553;28;20175;-42
2021/12/05 03:23:14;;;;;;;2.00;1.70;;;15.70;57.00;16.80;99153.00;;;;4970681;28;20192;-42
2021/12/05 03:25:40;;;;;;;1.93;1.73;;;15.70;57.10;16.80;99147.00;;;;4970455;28;20200;-41
2021/12/05 03:28:06;;;;;;;1.90;1.70;;;15.70;57.20;16.80;99152.00;;;;4970885;28;20283;-42
2021/12/05 03:30:32;;;;;;;1.90;1.70;;;15.70;57.10;16.80;99149.00;;;;4971010;28;20177;-42
2021/12/05 03:32:58;;;;;;;2.17;1.70;;;15.60;57.30;16.80;99151.00;;;;4970985;28;20204;-41
2021/12/05 03:35:27;;;;;;;1.63;1.53;;;15.60;57.30;16.70;99143.00;;;;4953462;28;20192;-41
2021/12/05 03:37:53;;;;;;;1.97;1.73;;;15.60;57.30;16.70;99145.00;;;;4970733;28;20212;-42
2021/12/05 03:40:21;;;;;;;1.63;1.53;;;15.60;57.30;16.70;99150.00;;;;4970486;28;20189;-41
2021/12/05 03:42:47;;;;;;;1.93;1.80;;;15.60;57.40;16.70;99104.00;;;;4969960;28;20193;-42
2021/12/05 03:45:17;;;;;;;2.17;1.80;;;15.60;57.30;16.70;99145.00;;;;4969444;28;20232;-41
2021/12/05 03:47:43;;;;;;;2.50;1.80;;;15.60;57.30;16.70;99147.00;;;;4970300;28;20259;-42
2021/12/05 03:50:10;;;;;;;1.83;1.67;;;15.60;57.30;16.70;99147.00;;;;4970739;28;20352;-41
2021/12/05 03:52:36;;;;;;;2.00;1.80;;;15.60;57.40;16.70;99157.00;;;;4970095;28;20205;-42
2021/12/05 03:55:03;;;;;;;1.90;1.70;;;15.60;57.30;16.70;99157.00;;;;4970218;28;20530;-42
2021/12/05 03:57:28;;;;;;;2.20;1.63;;;15.50;57.30;16.70;99156.00;;;;4970409;28;20188;-42
2021/12/05 03:59:54;;;;;;;1.90;1.67;;;15.50;57.30;16.60;99156.00;;;;4969237;28;20177;-41
2021/12/05 04:02:20;;;;;;;1.83;1.67;;;15.50;57.30;16.60;99157.00;;;;4972770;28;20201;-42
2021/12/05 04:04:46;;;;;;;2.00;1.80;;;15.50;57.30;16.60;99151.00;;;;4973583;28;20188;-41
2021/12/05 04:07:13;;;;;;;1.70;1.60;;;15.50;57.30;16.60;99147.00;;;;4971254;28;20292;-42
2021/12/05 04:09:39;;;;;;;2.87;1.60;;;15.40;57.60;16.60;99154.00;;;;4967017;28;20274;-42
2021/12/05 04:12:05;;;;;;;2.37;1.80;;;15.40;57.60;16.60;99151.00;;;;4959649;28;20690;-41
2021/12/05 04:14:37;;;;;;;1.60;1.50;;;15.40;57.90;16.60;99157.00;;;;4950330;28;20245;-41
2021/12/05 04:17:05;;;;;;;2.13;1.70;;;15.40;57.60;16.60;99148.00;;;;4950744;28;20177;-42
2021/12/05 04:19:31;;;;;;;1.80;1.70;;;15.30;57.50;16.50;99142.00;;;;4950353;28;20660;-41
2021/12/05 04:21:57;;;;;;;2.33;1.83;;;15.30;57.70;16.50;99147.00;;;;4949760;28;20228;-42
2021/12/05 04:24:23;;;;;;;2.47;1.70;;;15.30;57.90;16.50;99139.00;;;;4950199;29;20182;-41
2021/12/05 04:26:49;;;;;;;1.80;1.67;;;15.30;57.60;16.50;99131.00;;;;4950283;29;20205;-42
2021/12/05 04:29:14;;;;;;;2.30;1.70;;;15.30;57.90;16.50;99139.00;;;;4950013;29;20181;-41
2021/12/05 04:31:41;;;;;;;5.60;1.80;;;15.30;58.20;16.50;99143.00;;;;4949535;28;20213;-42
2021/12/05 04:34:07;;;;;;;5.43;2.00;;;15.30;59.90;16.20;99141.00;;;;4949879;28;20179;-42
2021/12/05 04:36:33;;;;;;;3.20;1.40;;;15.40;59.50;16.50;99149.00;;;;4950051;28;20170;-42
2021/12/05 04:38:58;;;;;;;2.93;1.90;;;15.40;58.70;16.50;99142.00;;;;4950002;29;20610;-41
2021/12/05 04:41:24;;;;;;;2.10;1.70;;;15.30;58.10;16.40;99129.00;;;;4949192;28;20177;-41
2021/12/05 04:43:51;;;;;;;5.83;2.20;;;15.40;57.90;16.40;99131.00;;;;4948991;29;20246;-42
2021/12/05 04:46:21;;;;;;;3.83;1.83;;;15.30;58.00;16.40;99132.00;;;;4964451;28;20185;-42
2021/12/05 04:48:49;;;;;;;5.27;2.13;;;15.30;57.90;16.40;99134.00;;;;4949934;29;20201;-41
2021/12/05 04:51:15;;;;;;;7.83;2.20;;;15.30;57.90;16.40;99133.00;;;;4949726;28;20744;-42
2021/12/05 04:53:41;;;;;;;4.57;1.70;;;15.30;57.80;16.40;99128.00;;;;4949522;28;20181;-42
2021/12/05 04:56:06;;;;;;;5.43;1.90;;;15.30;57.70;16.40;99134.00;;;;4948219;28;20174;-41
2021/12/05 04:58:33;;;;;;;3.63;2.07;;;15.40;57.50;16.40;99135.00;;;;4948691;28;20177;-42
2021/12/05 05:00:58;;;;;;;3.63;2.10;;;15.30;57.50;16.40;99136.00;;;;4964157;28;20185;-42
2021/12/05 05:03:25;;;;;;;3.40;1.90;;;15.30;57.30;16.30;99130.00;;;;4948845;28;20201;-42
2021/12/05 05:06:02;;;;;;;3.77;1.93;;;15.30;57.50;16.30;99140.00;;;;4948904;29;20205;-42
2021/12/05 05:08:30;;;;;;;2.60;1.80;;;15.30;57.30;16.30;99138.00;;;;4949477;28;20416;-42
2021/12/05 05:10:58;;;;;;;1.97;1.70;;;15.30;57.30;16.10;99142.00;;;;4949496;28;20186;-42
2021/12/05 05:13:25;;;;;;;3.10;1.93;;;15.30;57.10;16.30;99129.00;;;;4949836;28;20194;-41
2021/12/05 05:15:52;;;;;;;3.13;1.80;;;15.30;57.10;16.30;99140.00;;;;4949272;28;20667;-41
2021/12/05 05:18:18;;;;;;;3.33;2.00;;;15.20;56.80;16.30;99136.00;;;;4964185;28;20181;-42
2021/12/05 05:20:54;;;;;;;2.50;1.80;;;15.20;57.60;16.30;99121.00;;;;4949274;28;20190;-41
2021/12/05 05:47:37;;;;;;;2.53;1.83;;;15.10;56.40;16.10;99160.00;;;;4940261;29;20231;-41
2021/12/05 05:50:04;;;;;;;2.50;1.90;;;15.00;56.40;16.10;99159.00;;;;4949369;29;20641;-42
2021/12/05 05:52:30;;;;;;;3.40;1.97;;;15.10;56.50;16.10;99154.00;;;;4948714;28;20209;-42
2021/12/05 05:54:57;;;;;;;2.20;1.90;;;15.00;56.30;16.10;99159.00;;;;4948986;28;20197;-41
2021/12/05 05:57:27;;;;;;;2.00;1.70;;;15.00;56.40;16.10;99159.00;;;;4948656;29;20178;-42
2021/12/05 06:05:04;;;;;;;5.50;2.17;;;14.90;56.10;16.00;99164.00;;;;4948499;29;20786;-43
2021/12/05 06:07:30;;;;;;;4.10;1.97;;;14.90;56.40;16.10;99174.00;;;;4949668;28;20221;-41
2021/12/05 06:09:56;;;;;;;3.63;1.90;;;14.90;56.40;16.00;99179.00;;;;4963522;28;20174;-42
2021/12/05 06:12:21;;;;;;;2.57;1.83;;;14.90;56.40;16.00;99185.00;;;;4948345;28;20190;-42
2021/12/05 06:14:47;;;;;;;2.57;2.00;;;14.90;56.40;16.00;99177.00;;;;4948564;28;20154;-41
2021/12/05 06:17:13;;;;;;;4.63;1.70;;;14.90;56.40;16.00;99180.00;;;;4948473;28;20192;-42
2021/12/05 06:19:38;;;;;;;4.17;1.70;;;14.90;56.40;16.00;99184.00;;;;4948743;28;20181;-41
2021/12/05 06:22:04;;;;;;;2.90;1.80;;;14.90;56.60;16.00;99185.00;;;;4947867;28;20463;-41
2021/12/05 06:24:30;;;;;;;5.13;2.07;;;14.90;56.70;16.00;99180.00;;;;4950686;28;20194;-40
2021/12/05 06:26:58;;;;;;;3.77;1.97;;;14.90;56.40;16.00;99180.00;;;;4952336;29;20197;-40
2021/12/05 06:29:23;;;;;;;2.60;1.60;;;14.90;56.40;16.00;99189.00;;;;4951631;28;20189;-40
2021/12/05 06:32:20;;;;;;;5.13;1.77;;;14.90;56.40;16.00;99193.00;;;;4951801;28;20205;-40
2021/12/05 06:37:49;;;;;;;1.93;1.77;;;14.80;56.40;15.90;99190.00;;;;4964582;28;20165;-40
2021/12/05 06:40:34;;;;;;;3.57;2.10;;;14.80;56.50;15.90;99201.00;;;;4951821;29;20594;-40
2021/12/05 06:45:57;;;;;;;3.57;1.63;;;14.80;56.30;15.90;99198.00;;;;4951826;29;20197;-40
2021/12/05 06:46:03;;;;;;;1.73;1.50;;;14.80;56.60;15.90;99205.00;;;;4951896;29;20241;-41
2021/12/05 06:48:29;;;;;;;1.90;1.60;;;14.80;56.30;15.90;99198.00;;;;4951936;29;20206;-41
2021/12/05 06:50:54;;;;;;;2.03;1.70;;;14.80;56.40;15.80;99209.00;;;;4952073;29;20236;-41
2021/12/05 06:53:20;;;;;;;1.83;1.47;;;14.70;56.50;15.80;99211.00;;;;4966594;28;20900;-41
2021/12/05 06:55:46;;;;;;;2.73;1.83;;;14.70;56.60;15.90;99216.00;;;;4951797;28;20201;-41
2021/12/05 06:58:12;;;;;;;2.00;1.80;;;14.70;56.70;15.80;99219.00;;;;4952310;29;20169;-41
2021/12/05 07:00:38;;;;;;;1.80;1.60;;;14.70;56.60;15.80;99218.00;;;;4949199;28;20562;-41
2021/12/05 07:03:05;;;;;;;2.17;1.37;;;14.80;56.40;15.80;99216.00;;;;4951021;28;20213;-41
2021/12/05 07:08:16;;;;;;;2.07;1.70;;;14.70;57.20;15.80;99216.00;;;;4951805;29;20289;-41
2021/12/05 07:10:56;;;;;;;2.43;1.80;;;14.70;56.40;15.70;99214.00;;;;4951832;29;20158;-41
2021/12/05 07:14:34;;;;;;;2.00;1.67;;;14.70;56.30;15.70;99230.00;;;;4950101;29;20679;-41
2021/12/05 07:16:31;;;;;;;2.13;1.47;;;14.70;56.60;15.70;99221.00;;;;4947027;29;20237;-41
2021/12/05 07:24:13;;;;;;;2.60;1.60;;;14.60;56.50;15.70;99213.00;;;;4954806;28;20205;-41
2021/12/05 07:42:58;;;;;;;1.50;1.40;;;14.50;56.50;15.60;99235.00;;;;4950032;29;20205;-41
2021/12/05 07:45:31;;;;;;;1.70;1.57;;;14.50;56.50;15.60;99239.00;;;;4951406;28;20196;-41
2021/12/05 07:47:59;;;;;;;1.60;1.30;;;14.50;56.40;15.60;99240.00;;;;4950858;28;20296;-41
2021/12/05 07:50:39;;;;;;;1.70;1.60;;;14.50;56.40;15.60;99236.00;;;;4950733;28;20640;-41
2021/12/05 07:53:10;;;;;;;1.60;1.50;;;14.50;56.40;15.60;99248.00;;;;4951060;29;20202;-41
2021/12/05 07:55:42;;;;;;;2.17;1.63;;;14.50;56.40;15.50;99249.00;;;;4951231;28;20268;-40
2021/12/05 07:58:26;;;;;;;1.83;1.33;;;14.50;56.40;15.50;99245.00;;;;4951111;28;20158;-41
2021/12/05 08:01:22;;;;;;;1.80;1.50;;;14.40;56.40;15.50;99244.00;;;;4951087;28;20166;-40
2021/12/05 08:14:38;;;;;;;1.73;1.53;;;14.30;57.00;15.50;99259.00;;;;4950366;29;20176;-42
2021/12/05 08:17:06;;;;;;;1.70;1.60;;;14.20;56.90;15.50;99261.00;;;;4951297;29;20178;-42
2021/12/05 08:19:32;;;;;;;1.70;1.60;;;14.20;56.90;15.40;99261.00;;;;4952890;28;20205;-42
2021/12/05 08:21:57;;;;;;;1.40;1.30;;;14.20;56.90;15.40;99270.00;;;;4952133;28;20680;-40
2021/12/05 08:24:30;;;;;;;1.90;1.57;;;14.20;56.90;15.40;99256.00;;;;4950485;28;20174;-41
2021/12/05 08:26:56;;;;;;;1.93;1.37;;;14.20;56.90;15.40;99277.00;;;;4950025;28;20202;-43
2021/12/05 08:29:33;;;;;;;1.47;1.37;;;14.20;56.90;15.40;99267.00;;;;4948803;29;20549;-42
2021/12/05 08:32:12;;;;;;;1.73;1.23;;;14.20;57.10;15.40;99268.00;;;;4950322;28;20293;-43
2021/12/05 08:35:21;;;;;;;1.80;1.63;;;14.20;57.80;15.40;99281.00;;;;4949534;28;20205;-42
2021/12/05 08:40:38;;;;;;;1.90;1.60;;;14.20;57.30;15.30;99269.00;;;;4949746;29;20165;-41
2021/12/05 08:46:19;;;;;;;4.20;1.67;;;14.60;58.00;15.40;99285.00;;;;4949080;28;20209;-41
2021/12/05 09:22:37;;;;;;;4.67;1.80;;;17.60;54.80;17.50;99289.00;;;;4949190;29;20208;-41
2021/12/05 09:25:17;;;;;;;8.63;2.00;;;17.60;55.60;17.60;99328.00;;;;4948142;29;20240;-41
2021/12/05 09:30:33;;;;;;;5.90;2.10;;;17.60;56.30;17.70;99322.00;;;;4949199;29;20592;-41
2021/12/05 10:02:39;;;;;;;3.87;2.00;;;17.20;57.80;17.80;99361.00;;;;4953611;28;20260;-41
2021/12/05 10:08:20;;;;;;;3.60;1.90;;;17.10;57.60;17.70;99364.00;;;;4954062;28;20578;-41
2021/12/05 10:11:08;;;;;;;1.97;1.67;;;17.10;57.80;17.70;99353.00;;;;4953409;29;20229;-41
2021/12/05 10:14:00;;;;;;;3.13;1.67;;;17.00;57.50;17.70;99365.00;;;;4970074;28;20207;-40
2021/12/05 10:17:31;;;;;;;3.83;1.80;;;17.00;57.20;17.70;99370.00;;;;4971891;28;20271;-41
2021/12/05 10:36:18;;;;;;;2.27;1.70;;;16.80;57.50;17.50;99369.00;;;;4972935;28;20177;-41
2021/12/05 10:38:50;;;;;;;2.30;1.53;;;16.80;56.80;17.50;99367.00;;;;4972756;28;20188;-41
2021/12/05 10:41:48;;;;;;;1.90;1.43;;;16.70;56.90;17.50;99366.00;;;;4973097;28;20589;-41
2021/12/05 10:44:14;;;;;;;2.90;1.60;;;16.70;57.00;17.40;99370.00;;;;4973454;28;20162;-41
2021/12/05 10:46:41;;;;;;;5.07;1.93;;;16.70;57.30;17.40;99377.00;;;;4972751;28;20724;-41
2021/12/05 10:49:12;;;;;;;8.47;1.97;;;16.70;57.60;17.40;99375.00;;;;4971949;28;20698;-40
2021/12/05 10:51:52;;;;;;;8.40;2.00;;;16.70;57.90;17.40;99378.00;;;;4972401;28;20746;-40
2021/12/05 10:54:20;;;;;;;5.63;2.00;;;16.70;58.20;17.40;99382.00;;;;4972630;28;20149;-40
2021/12/05 10:56:56;;;;;;;6.47;1.80;;;16.60;58.20;17.40;99374.00;;;;4972378;28;20169;-40
2021/12/05 10:59:32;;;;;;;4.33;2.03;;;16.60;58.00;17.30;99373.00;;;;4972919;28;20770;-40
2021/12/05 11:02:03;;;;;;;8.37;1.67;;;16.60;58.20;17.30;99373.00;;;;4972157;28;20221;-40
2021/12/05 11:04:35;;;;;;;7.50;2.00;;;16.60;58.10;17.30;99379.00;;;;4972047;28;20188;-41
2021/12/05 11:07:10;;;;;;;4.47;1.80;;;16.60;58.20;17.30;99387.00;;;;4971644;28;20664;-41
2021/12/05 11:09:41;;;;;;;4.23;1.67;;;16.60;58.20;17.30;99378.00;;;;4972065;28;20161;-40
2021/12/05 11:12:28;;;;;;;2.53;1.70;;;16.60;58.10;17.30;99385.00;;;;4972118;28;20220;-40
2021/12/05 11:15:01;;;;;;;4.27;1.70;;;16.60;58.20;17.30;99383.00;;;;4971841;28;20790;-41
2021/12/05 11:17:32;;;;;;;4.57;1.70;;;16.50;58.10;17.20;99387.00;;;;4972421;28;20192;-40
2021/12/05 11:20:13;;;;;;;2.43;1.60;;;16.60;58.20;17.20;99395.00;;;;4972051;28;20895;-41
2021/12/05 11:22:42;;;;;;;3.70;1.70;;;16.60;58.10;17.20;99388.00;;;;4972160;28;20201;-40
2021/12/05 11:25:20;;;;;;;4.07;1.73;;;16.60;58.00;17.20;99364.00;;;;4971883;28;20172;-41
2021/12/05 11:27:56;;;;;;;3.80;1.60;;;16.60;57.90;17.20;99375.00;;;;4970689;28;20201;-41
2021/12/05 11:30:44;;;;;;;3.70;1.63;;;16.60;58.00;17.10;99384.00;;;;4972131;28;20165;-41
2021/12/05 11:33:20;;;;;;;2.20;1.50;;;16.60;57.80;17.20;99384.00;;;;4971205;28;20213;-41
2021/12/05 11:35:51;;;;;;;2.00;1.40;;;16.60;57.90;17.10;99389.00;;;;4971462;28;20224;-41
2021/12/05 11:38:19;;;;;;;2.50;1.70;;;16.60;58.20;17.10;99391.00;;;;4972084;28;20168;-45
2021/12/05 11:40:52;;;;;;;5.27;1.70;;;16.50;57.70;17.10;99389.00;;;;4971580;28;20181;-41
2021/12/05 11:43:42;;;;;;;2.23;1.60;;;16.60;57.50;17.20;99382.00;;;;4972409;28;20289;-41
2021/12/05 11:46:11;;;;;;;2.73;1.30;;;16.70;57.30;17.20;99382.00;;;;4971644;28;20264;-40
2021/12/05 11:49:03;;;;;;;4.40;1.83;;;16.80;57.00;17.30;99380.00;;;;4971868;28;20255;-41
2021/12/05 11:51:41;;;;;;;3.33;1.70;;;17.00;56.70;17.50;99389.00;;;;4971444;28;20161;-42
2021/12/05 11:54:43;;;;;;;4.87;1.80;;;17.30;56.30;17.70;99388.00;;;;4971541;28;20179;-41
2021/12/05 11:57:15;;;;;;;2.70;1.70;;;17.60;56.20;17.90;99389.00;;;;4969026;28;20188;-41
2021/12/05 11:59:50;;;;;;;2.63;1.57;;;18.00;55.50;18.10;99377.00;;;;4972113;28;20595;-40
2021/12/05 12:02:23;;;;;;;3.17;1.50;;;18.10;55.30;18.20;99381.00;;;;4971150;28;20235;-40
2021/12/05 12:04:53;;;;;;;2.47;1.53;;;18.30;55.30;18.40;99388.00;;;;4958803;28;20169;-40
2021/12/05 12:07:39;;;;;;;4.70;1.57;;;18.40;55.20;18.50;99386.00;;;;4951455;28;20284;-40
2021/12/05 12:10:22;;;;;;;3.63;1.77;;;18.50;54.80;18.70;99397.00;;;;4952457;28;20164;-41
2021/12/05 12:12:56;;;;;;;3.33;1.37;;;18.70;54.70;18.80;99393.00;;;;4950578;29;20252;-41
2021/12/05 12:15:23;;;;;;;2.00;1.40;;;18.80;54.60;18.90;99393.00;;;;4951580;28;20162;-40
2021/12/05 12:17:50;;;;;;;2.80;1.43;;;18.80;54.50;18.90;99402.00;;;;4952334;28;20200;-41
2021/12/05 12:20:22;;;;;;;1.90;1.70;;;18.80;54.50;19.00;99394.00;;;;4951153;28;20182;-41
2021/12/05 12:22:49;;;;;;;3.53;1.60;;;18.90;54.50;19.10;99408.00;;;;4950529;29;20562;-41
2021/12/05 12:25:18;;;;;;;2.60;1.43;;;18.90;54.60;19.10;99410.00;;;;4952176;28;20594;-41
2021/12/05 12:27:45;;;;;;;2.47;1.53;;;18.80;54.60;19.20;99409.00;;;;4954134;28;20758;-41
2021/12/05 12:30:13;;;;;;;1.73;1.40;;;18.90;55.20;19.20;99413.00;;;;4986323;28;20770;-41
2021/12/05 12:32:47;;;;;;;1.50;1.40;;;18.90;54.50;19.30;99411.00;;;;4970643;28;20190;-41
2021/12/05 12:35:17;;;;;;;2.93;1.50;;;18.90;54.60;19.30;99407.00;;;;4969160;28;20172;-41
2021/12/05 12:38:10;;;;;;;1.90;1.60;;;18.80;54.80;19.30;99417.00;;;;4970851;28;20823;-40
2021/12/05 12:40:54;;;;;;;2.77;1.50;;;18.80;55.00;19.30;99412.00;;;;4971211;28;20185;-40
2021/12/05 12:44:11;;;;;;;1.60;1.50;;;18.70;55.30;19.20;99425.00;;;;4969852;28;20278;-41
2021/12/05 12:46:42;;;;;;;2.93;1.57;;;18.80;55.80;19.20;99418.00;;;;4968882;28;20203;-42
2021/12/05 12:49:16;;;;;;;2.40;1.63;;;18.70;55.60;19.20;99421.00;;;;4970637;28;20223;-41
2021/12/05 12:52:05;;;;;;;3.07;1.60;;;18.70;55.50;19.20;99424.00;;;;4970268;28;20688;-42
2021/12/05 12:54:51;;;;;;;1.93;1.40;;;18.60;55.60;19.20;99419.00;;;;4970372;28;20215;-43
2021/12/05 12:57:23;;;;;;;3.27;1.60;;;18.60;55.60;19.10;99419.00;;;;4970543;28;20173;-43
2021/12/05 13:00:15;;;;;;;1.93;1.30;;;18.60;55.60;19.10;99422.00;;;;4970489;28;20659;-43
2021/12/05 13:05:52;;;;;;;2.10;1.57;;;18.60;55.70;19.10;99429.00;;;;4970181;28;20663;-43
2021/12/05 13:11:17;;;;;;;2.17;1.57;;;18.50;55.90;19.00;99438.00;;;;4969157;28;20319;-42
2021/12/05 13:13:45;;;;;;;1.70;1.60;;;18.50;55.90;19.00;99434.00;;;;4970067;28;20236;-42
2021/12/05 13:16:27;;;;;;;2.77;1.60;;;18.40;55.90;19.00;99431.00;;;;4970126;28;20194;-43
2021/12/05 13:19:18;;;;;;;1.57;1.47;;;18.40;56.60;19.00;99433.00;;;;4970234;28;20700;-43
2021/12/05 13:21:46;;;;;;;1.47;1.33;;;18.40;56.00;19.00;99437.00;;;;4968330;28;20681;-43
2021/12/05 13:24:31;;;;;;;1.63;1.53;;;18.40;55.80;19.00;99439.00;;;;4969385;28;20286;-41
2021/12/05 13:27:03;;;;;;;1.70;1.60;;;18.50;55.70;19.00;99431.00;;;;4969768;28;20165;-42
2021/12/05 13:29:38;;;;;;;1.70;1.60;;;18.60;55.60;19.10;99439.00;;;;4972751;28;20236;-41
2021/12/05 13:32:26;;;;;;;2.67;1.70;;;18.70;55.50;19.10;99444.00;;;;4969603;28;20219;-42
2021/12/05 13:35:11;;;;;;;2.30;1.60;;;18.70;55.30;19.20;99449.00;;;;4968204;28;20173;-43
2021/12/05 13:37:45;;;;;;;1.80;1.70;;;18.90;55.10;19.30;99447.00;;;;4970494;28;20165;-41
2021/12/05 13:40:18;;;;;;;1.67;1.57;;;19.00;55.00;19.40;99447.00;;;;4970703;28;20168;-42
2021/12/05 13:43:06;;;;;;;1.93;1.70;;;19.10;54.90;19.40;99451.00;;;;4969478;28;20669;-42
2021/12/05 13:45:43;;;;;;;2.13;1.60;;;19.20;54.80;19.50;99460.00;;;;4969331;28;20165;-42
2021/12/05 13:48:19;;;;;;;1.60;1.50;;;19.30;54.60;19.50;99385.00;;;;4961579;28;20314;-42
2021/12/05 13:51:00;;;;;;;1.50;1.40;;;19.30;54.50;19.60;99448.00;;;;4950773;28;20208;-42
2021/12/05 13:53:35;;;;;;;2.60;1.60;;;19.30;54.60;19.60;99461.00;;;;4950543;28;20216;-42
2021/12/05 13:56:07;;;;;;;1.40;1.30;;;19.30;54.80;19.60;99459.00;;;;4949341;29;20180;-42
2021/12/05 13:58:38;;;;;;;2.33;1.40;;;19.20;54.90;19.70;99463.00;;;;4952555;28;20553;-43
2021/12/05 14:01:30;;;;;;;2.20;1.43;;;19.20;55.00;19.70;99469.00;;;;4952683;29;20186;-42
2021/12/05 14:04:07;;;;;;;1.73;1.63;;;19.20;55.20;19.70;99466.00;;;;4952049;29;20203;-42
2021/12/05 14:07:04;;;;;;;2.63;1.60;;;19.10;55.30;19.70;99478.00;;;;4951059;29;20166;-42
2021/12/05 14:09:38;;;;;;;1.83;1.57;;;19.20;55.50;19.70;99480.00;;;;4949583;29;20218;-41
2021/12/05 14:12:27;;;;;;;4.00;1.63;;;19.10;55.70;19.70;99489.00;;;;4949922;29;20255;-42
2021/12/05 14:15:15;;;;;;;2.53;1.47;;;19.10;56.00;19.60;99500.00;;;;4963171;28;20185;-42
2021/12/05 14:17:42;;;;;;;2.67;1.60;;;19.10;55.80;19.60;99501.00;;;;4960528;28;20241;-41
2021/12/05 14:20:11;;;;;;;1.50;1.40;;;19.00;55.70;19.60;99501.00;;;;4951299;28;20181;-42
2021/12/05 14:22:37;;;;;;;1.93;1.70;;;19.00;55.80;19.60;99508.00;;;;4950213;28;20193;-41
2021/12/05 14:25:10;;;;;;;1.50;1.40;;;19.00;55.90;19.60;99516.00;;;;4950269;28;20196;-41
2021/12/05 14:27:39;;;;;;;2.03;1.60;;;18.90;55.80;19.60;99515.00;;;;4950226;29;20204;-41
2021/12/05 14:30:16;;;;;;;1.50;1.40;;;18.80;55.80;19.50;99508.00;;;;4950643;28;20173;-42
2021/12/05 14:32:43;;;;;;;3.27;1.60;;;18.80;55.80;19.50;99524.00;;;;4950097;28;20194;-43
2021/12/05 14:35:12;;;;;;;1.80;1.53;;;18.80;55.80;19.50;99530.00;;;;4949932;28;20182;-41
2021/12/05 14:37:40;;;;;;;3.00;1.60;;;18.80;55.90;19.50;99538.00;;;;4950303;29;20232;-42
2021/12/05 14:40:14;;;;;;;1.97;1.60;;;18.80;55.80;19.40;99539.00;;;;4950743;28;20215;-41
2021/12/05 14:42:43;;;;;;;1.87;1.30;;;18.70;56.00;19.40;99551.00;;;;4949857;29;20288;-42
2021/12/05 14:45:22;;;;;;;2.97;1.57;;;18.70;56.00;19.40;99542.00;;;;4953025;28;20185;-42
2021/12/05 14:47:48;;;;;;;1.60;1.50;;;18.70;55.90;19.40;99546.00;;;;4953825;29;20692;-42
2021/12/05 14:50:24;;;;;;;1.67;1.57;;;18.70;56.00;19.40;99555.00;;;;4952450;29;20649;-43
2021/12/05 14:52:53;;;;;;;1.50;1.40;;;18.70;55.90;19.30;99546.00;;;;4953620;28;20204;-43
2021/12/05 14:55:20;;;;;;;1.60;1.50;;;18.60;55.80;19.30;99549.00;;;;4953193;28;20260;-42
2021/12/05 14:57:49;;;;;;;1.53;1.43;;;18.60;56.00;19.30;99551.00;;;;4953967;28;20175;-42
2021/12/05 15:00:34;;;;;;;1.50;1.40;;;18.60;55.80;19.30;99560.00;;;;4953683;28;20248;-42
2021/12/05 15:03:05;;;;;;;1.47;1.37;;;18.60;55.90;19.20;99571.00;;;;4953323;28;20223;-43
2021/12/05 15:05:30;;;;;;;1.60;1.50;;;18.60;56.00;19.20;99557.00;;;;4953074;28;20176;-41
2021/12/05 15:08:10;;;;;;;1.70;1.50;;;18.50;55.80;19.20;99569.00;;;;4952231;28;20204;-42
2021/12/05 15:10:36;;;;;;;1.53;1.43;;;18.50;55.90;19.10;99566.00;;;;4952737;28;20213;-42
2021/12/05 15:13:02;;;;;;;1.60;1.50;;;18.50;55.90;19.10;99570.00;;;;4959054;28;20194;-42
2021/12/05 15:15:28;;;;;;;1.80;1.40;;;18.50;55.90;19.10;99591.00;;;;4955734;28;20226;-42
2021/12/05 15:17:55;;;;;;;1.60;1.50;;;18.50;55.90;19.10;99574.00;;;;4967502;28;20179;-41
2021/12/05 15:20:25;;;;;;;1.30;1.20;;;18.50;55.80;19.20;99578.00;;;;4972699;28;20277;-41
2021/12/05 15:23:01;;;;;;;1.60;1.50;;;18.60;55.60;19.20;99571.00;;;;4972233;28;20228;-42
2021/12/05 15:25:27;;;;;;;1.50;1.40;;;18.80;55.50;19.40;99580.00;;;;4972639;28;20162;-42
2021/12/05 15:27:53;;;;;;;1.40;1.30;;;19.00;55.10;19.50;99512.00;;;;4972793;28;20209;-42
2021/12/05 15:30:22;;;;;;;1.43;1.33;;;19.20;54.70;19.60;99590.00;;;;4972467;28;20175;-43
2021/12/05 15:33:01;;;;;;;1.50;1.40;;;19.50;54.50;19.80;99599.00;;;;4972313;28;20196;-42
2021/12/05 15:35:28;;;;;;;1.50;1.40;;;19.60;54.20;19.90;99606.00;;;;4972239;28;20158;-43
2021/12/05 15:37:57;;;;;;;3.00;1.50;;;19.70;54.00;20.00;99606.00;;;;4972308;28;20173;-42
2021/12/05 15:40:24;;;;;;;2.10;1.50;;;19.80;54.30;20.10;99611.00;;;;4972182;28;20547;-43